대문
인공위성 심상 15 일 일기 예보기후바람 예보 사이클론 번개 공항FAQ 회보 프로젝트 소개
날씨 : 유럽 아프리카 북아메리카 남아메리카 아시아 오스트레일리아-오세아니아 다른 사람
언어 접촉

청도, 중국

위도: 36-04N, 경도: 120-20E, 해발고도: 77 m


METAR: ZSQD 021200Z 01005MPS CAVOK 17/13 Q1014 NOSIG
TAF: ZSQD 020912Z 0212/0312 36003MPS 3500 BR NSC TX24/0306Z TN12/21Z

시간: 20:25 (12:25 UTC)

날씨관측

보고는 전에 25 분 제출되었다: 12:00 UTC  
바람 10 kt  
온도 17°C
습도 77%
기압 1014 hPa
시정 10 km 이상
운고 및 시정 양호한 기상

단위계

날씨예보

보고는 전에 03 시간 그리고 13 분 제출되었다: 09:12 UTC  
예보기간[UTC] : 02일 12시 ~ 03일 12시
바람 6 kt  
시정 3500 m
박무
이 위치에 정보는 a를 조건으로 하여 이다 포기
날씨 : 유럽 아프리카 북아메리카 남아메리카 아시아 오스트레일리아-오세아니아 다른 사람
인공위성 심상 15 일 일기 예보기후바람 예보 사이클론 번개 공항FAQ 언어 접촉 회보 프로젝트 소개